Portada
METAR-TAF:

METAR-TAF

Aeropuertos :

Mahshahr, Irán

latitud: 30-33-23N, longitud: 049-09-07E, altitud: 2 m

Observación

El informe se hizo hace 19 minutos, a las 12:00 UTC
Viento 12 kt del norte-noroeste
Temperatura 32°C
Humedad 23%
Presión 1013 hPa
Visibilidad 10 km o más
sin nubes por debajo de 1500 m y sin presencia de cumulonimbus.

METAR: OIAM 041200Z 33012KT CAVOK 32/08 Q1013

Hora: 16:49 (12:19 UTC)


TAF: falta

Observaciones y pronósticos meteorológicos de más de 4000 aeropuertos (mensajes METAR y TAF).

Los puntos amarillos y rojos representan las estaciones disponibles.

Ponga el ratón en el punto deseado para ver el nombre de la estación.

Haga clic para ver las observaciones y los pronósticos meteorológicos.

Para cambiar el mapa : haga clic en los botones verdes con una cruz de color negro para hacer un zoom, en el botón verde con un guión para alejar o en las flechas verdes para mapas adyacentes.


METAR-TAF: